Latest Weather Observations for Mount Isa

IDQ60801

Issued at 12:35 pm EST Thursday 23 October 2014 (issued every 30 minutes, with the page automatically refreshed every 10 minutes)

About weather observations | Map of weather stations | Latest weather observations for QLD | Other Formats
Station Details ID: 029127 Name: MOUNT ISA AERO Lat: -20.68 Lon: 139.49 Height: 340.3 m
Data from the previous 72 hours. | See also: Recent months at Mount Isa
Date/Time
EST
Temp
°C
App
Temp
°C
Dew
Point
Rel
Hum
%
Delta-T
°C
Wind Press
QNH
hPa
Press
MSL
hPa
Rain
since 9 am
mm
Dir
 
Spd
km/h
Gust
km/h
Spd
kts
Gust
kts
23/12:30pm 32.7 26.7 1.0 13 15.9 E 22 32 12 17 1017.2 - 0.0
23/12:00pm 33.1 27.9 2.4 14 15.8 NE 19 32 10 17 1017.7 1015.7 0.0
23/11:30am 32.2 27.7 4.4 17 14.7 NNE 17 30 9 16 1018.2 - 0.0
23/11:00am 31.5 27.3 5.6 19 13.9 NE 17 28 9 15 1018.8 - 0.0
23/10:30am 31.6 26.0 5.2 19 14.1 NNE 24 35 13 19 1019.0 - 0.0
23/10:00am 30.4 25.6 5.7 21 13.2 NE 20 30 11 16 1019.3 - 0.0
23/09:30am 29.5 24.8 5.9 22 12.6 NNE 20 28 11 15 1019.6 - 0.0
23/09:00am 28.6 23.2 6.4 24 11.9 NNE 24 33 13 18 1019.5 1017.6 0.0
23/08:30am 28.0 22.6 6.5 25 11.5 NE 24 33 13 18 1019.5 - 0.0
23/08:00am 27.2 22.4 5.4 25 11.4 NE 20 30 11 16 1019.2 - 0.0
23/07:30am 26.4 22.3 4.2 24 11.3 ENE 15 22 8 12 1019.0 - 0.0
23/07:00am 24.6 21.2 4.1 26 10.3 ENE 11 13 6 7 1018.8 - 0.0
23/06:30am 20.1 16.6 1.5 29 8.6 NE 9 13 5 7 1018.5 - 0.0
23/06:00am 20.7 17.3 2.0 29 8.8 ENE 9 11 5 6 1018.0 1016.0 0.0
23/05:30am 24.4 21.1 2.4 23 10.7 ENE 9 13 5 7 1017.5 - 0.0
23/05:00am 25.2 20.9 -1.7 17 12.2 E 11 15 6 8 1016.9 - 0.0
23/04:30am 25.6 20.5 -2.0 16 12.5 ESE 15 20 8 11 1016.5 - 0.0
23/04:00am 26.1 20.9 -2.6 15 12.9 E 15 19 8 10 1016.4 - 0.0
23/03:30am 26.3 21.1 -3.0 14 13.1 E 15 20 8 11 1016.4 - 0.0
23/03:00am 26.6 21.7 -3.2 14 13.3 E 13 17 7 9 1016.5 1014.6 0.0
23/02:30am 26.7 21.5 -2.4 14 13.2 E 15 20 8 11 1016.6 - 0.0
23/02:00am 26.8 20.9 -2.6 14 13.3 E 19 20 10 11 1016.7 - 0.0
23/01:30am 25.0 20.5 -0.4 18 11.8 SE 13 19 7 10 1016.9 - 0.0
23/01:00am 23.7 19.2 -0.5 20 11.1 SE 13 15 7 8 1017.1 - 0.0
23/12:30am 19.3 15.9 1.8 31 8.1 SE 9 13 5 7 1017.2 - 0.0
23/12:00am 19.6 16.7 2.7 32 8.0 SSE 7 11 4 6 1017.5 1015.5 0.0
 
Date/Time
EST
Temp
°C
App
Temp
°C
Dew
Point
Rel
Hum
%
Delta-T
°C
Wind Press
QNH
hPa
Press
MSL
hPa
Rain
since 9 am
mm
Dir
 
Spd
km/h
Gust
km/h
Spd
kts
Gust
kts
22/11:30pm 19.4 16.6 3.3 34 7.7 S 7 9 4 5 1017.7 - 0.0
22/11:00pm 20.8 18.0 3.1 31 8.5 S 7 7 4 4 1017.7 - 0.0
22/10:30pm 21.9 19.1 2.1 27 9.4 S 6 7 3 4 1017.7 - 0.0
22/10:00pm 21.3 19.7 2.7 29 8.9 CALM 0 0 0 0 1017.5 - 0.0
22/09:30pm 22.8 19.8 2.1 25 9.9 SE 7 9 4 5 1017.4 - 0.0
22/09:00pm 27.5 24.3 3.0 20 12.3 ESE 9 11 5 6 1017.0 1015.1 0.0
22/08:30pm 29.1 24.6 -0.3 15 14.1 ESE 13 15 7 8 1016.7 - 0.0
22/08:00pm 29.9 24.8 -2.3 12 15.0 ESE 15 20 8 11 1016.4 - 0.0
22/07:30pm 29.9 25.1 -2.8 12 15.1 ESE 13 19 7 10 1016.1 - 0.0
22/07:00pm 30.2 25.7 -0.1 14 14.7 ESE 13 19 7 10 1015.9 - 0.0
22/06:30pm 31.7 25.9 -4.7 9 16.5 E 17 24 9 13 1015.5 - 0.0
22/06:00pm 32.7 27.9 0.2 12 16.1 ESE 15 19 8 10 1015.1 1013.1 0.0
22/05:30pm 33.2 29.0 1.9 14 16.0 SE 13 17 7 9 1015.0 - 0.0
22/05:00pm 33.5 27.7 -0.3 11 16.7 E 20 30 11 16 1015.0 - 0.0
22/04:30pm 34.1 28.8 2.9 14 16.3 SE 20 32 11 17 1015.0 - 0.0
22/04:00pm 33.2 30.0 4.9 17 15.2 ENE 11 32 6 17 1015.1 - 0.0
22/03:30pm 33.3 27.9 4.4 16 15.4 ENE 22 35 12 19 1015.5 - 0.0
22/03:00pm 33.2 28.4 4.5 16 15.3 E 19 30 10 16 1016.0 1014.0 0.0
22/02:30pm 33.4 28.9 5.9 18 15.0 ESE 19 32 10 17 1016.2 - 0.0
22/02:00pm 32.5 29.1 7.6 21 13.9 E 15 32 8 17 1016.7 - 0.0
22/01:30pm 32.8 29.0 6.0 18 14.6 ENE 15 30 8 16 1017.4 - 0.0
22/01:00pm 32.0 25.7 5.7 19 14.2 E 28 37 15 20 1017.9 - 0.0
22/12:30pm 32.4 27.8 6.5 20 14.2 E 20 39 11 21 1018.3 - 0.0
22/12:00pm 32.0 27.6 7.2 21 13.7 NE 20 32 11 17 1018.7 1016.7 0.0
22/11:30am 31.6 26.4 7.4 22 13.4 NE 24 35 13 19 1019.1 - 0.0
22/11:00am 31.0 25.0 6.9 22 13.2 NE 28 33 15 18 1019.4 - 0.0
22/10:30am 30.1 24.2 7.3 24 12.5 ENE 28 41 15 22 1019.8 - 0.0
22/10:00am 30.0 24.1 7.4 24 12.4 NE 28 37 15 20 1020.0 - 0.0
22/09:30am 28.9 23.1 7.8 26 11.6 NE 28 39 15 21 1020.1 - 0.0
22/09:00am 28.0 21.7 7.6 27 11.1 NE 30 39 16 21 1020.0 1018.1 0.0
22/08:30am 26.6 20.8 7.8 30 10.2 NE 28 37 15 20 1019.9 - 0.0
22/08:00am 26.4 20.7 6.9 29 10.4 NE 26 37 14 20 1019.5 - 0.0
22/07:30am 25.8 20.4 6.2 28 10.3 ENE 24 37 13 20 1019.2 - 0.0
22/07:00am 25.0 20.8 5.7 29 10.0 ENE 17 24 9 13 1018.7 - 0.0
22/06:30am 24.4 20.2 5.9 30 9.6 ENE 17 24 9 13 1018.4 - 0.0
22/06:00am 24.3 20.2 6.0 30 9.5 E 17 26 9 14 1017.9 1015.9 0.0
22/05:30am 24.6 20.9 4.7 27 10.1 E 13 17 7 9 1017.5 - 0.0
22/05:00am 24.4 19.8 3.8 26 10.3 ESE 17 20 9 11 1017.1 - 0.0
22/04:30am 24.7 20.3 2.7 24 10.8 ESE 15 19 8 10 1016.9 - 0.0
22/04:00am 24.9 20.7 1.6 22 11.2 ESE 13 15 7 8 1016.9 - 0.0
22/03:30am 25.3 20.6 1.0 20 11.6 E 15 17 8 9 1016.8 - 0.0
22/03:00am 25.5 20.6 -0.5 18 12.1 E 15 19 8 10 1016.7 1014.8 0.0
22/02:30am 26.3 22.1 -0.8 17 12.6 E 11 13 6 7 1016.9 - 0.0
22/02:00am 26.6 22.5 -0.5 17 12.7 E 11 15 6 8 1017.2 - 0.0
22/01:30am 26.9 22.7 -0.6 16 12.9 ESE 11 13 6 7 1017.5 - 0.0
22/01:00am 27.6 22.7 -0.2 16 13.2 E 15 24 8 13 1017.7 - 0.0
22/12:30am 26.9 22.4 -0.2 17 12.8 E 13 15 7 8 1017.9 - 0.0
22/12:00am 24.9 21.1 -1.1 18 11.9 ESE 9 11 5 6 1018.2 1016.2 0.0
 
Date/Time
EST
Temp
°C
App
Temp
°C
Dew
Point
Rel
Hum
%
Delta-T
°C
Wind Press
QNH
hPa
Press
MSL
hPa
Rain
since 9 am
mm
Dir
 
Spd
km/h
Gust
km/h
Spd
kts
Gust
kts
21/11:30pm 26.0 21.8 -1.1 17 12.5 ESE 11 13 6 7 1018.4 - 0.0
21/11:00pm 26.1 22.2 -1.7 16 12.7 ESE 9 13 5 7 1018.5 - 0.0
21/10:30pm 27.0 22.8 -0.8 16 13.0 E 11 13 6 7 1018.4 - 0.0
21/10:00pm 28.2 23.4 -2.3 13 14.0 E 13 15 7 8 1018.3 - 0.0
21/09:30pm 28.1 24.1 0.6 17 13.3 ESE 11 15 6 8 1018.0 - 0.0
21/09:00pm 28.7 24.7 0.7 16 13.6 ESE 11 15 6 8 1017.7 1015.7 0.0
21/08:30pm 29.0 25.3 2.2 18 13.4 ESE 11 13 6 7 1017.4 - 0.0
21/08:00pm 28.8 25.7 3.6 20 12.9 ESE 9 11 5 6 1017.0 - 0.0
21/07:30pm 30.1 26.3 1.6 16 14.2 E 11 15 6 8 1016.6 - 0.0
21/07:00pm 31.0 27.4 2.9 16 14.4 ESE 11 19 6 10 1016.3 - 0.0
21/06:30pm 31.9 27.7 1.9 15 15.2 ESE 13 19 7 10 1016.0 - 0.0
21/06:00pm 33.0 28.1 -0.3 12 16.4 E 15 20 8 11 1015.8 1013.8 0.0
21/05:30pm 33.5 27.8 0.6 12 16.5 ENE 20 26 11 14 1015.6 - 0.0
21/05:00pm 33.6 29.7 1.3 13 16.4 ENE 11 19 6 10 1015.4 - 0.0
21/04:30pm 33.9 28.9 1.6 13 16.5 SE 17 28 9 15 1015.5 - 0.0
21/04:00pm 33.8 29.5 1.3 12 16.5 SE 13 17 7 9 1015.5 - 0.0
21/03:30pm 33.8 28.4 1.3 12 16.5 NNE 19 26 10 14 1015.7 - 0.0
21/03:00pm 34.0 29.7 3.0 14 16.2 SSE 15 26 8 14 1016.0 1014.0 0.0
21/02:30pm 33.5 28.9 1.4 13 16.3 ESE 15 28 8 15 1016.5 - 0.0
21/02:00pm 32.9 28.5 2.7 15 15.6 E 15 24 8 13 1016.9 - 0.0
21/01:30pm 32.9 28.6 3.1 15 15.5 ENE 15 20 8 11 1017.5 - 0.0
21/01:00pm 31.9 27.8 4.1 17 14.6 NE 15 30 8 16 1018.1 - 0.0
21/12:30pm 32.3 28.5 3.9 16 14.9 ENE 13 24 7 13 1018.8 - 0.0
21/12:00pm 31.1 25.9 5.5 20 13.7 E 22 30 12 16 1019.3 1017.4 0.0
21/11:30am 31.5 26.7 5.6 19 13.9 NE 20 30 11 16 1019.9 - 0.0
21/11:00am 30.8 25.6 5.5 20 13.5 ENE 22 39 12 21 1020.2 - 0.0
21/10:30am 30.7 25.4 6.9 22 13.0 ENE 24 33 13 18 1020.5 - 0.0
21/10:00am 30.0 25.2 7.4 24 12.4 ENE 22 35 12 19 1020.7 - 0.0
21/09:30am 29.1 24.3 7.5 25 11.8 NE 22 33 12 18 1020.7 - 0.0
21/09:00am 28.5 23.1 6.2 24 11.9 NNE 24 32 13 17 1020.8 1018.8 0.0
21/08:30am 27.7 22.8 5.3 24 11.7 NE 20 28 11 15 1020.8 - 0.0
21/08:00am 27.1 21.6 3.9 22 11.8 NE 22 33 12 18 1020.3 - 0.0
21/07:30am 26.1 21.4 2.9 22 11.5 ENE 17 20 9 11 1019.9 - 0.0
21/07:00am 23.7 20.7 4.1 28 9.8 NNE 9 11 5 6 1019.5 - 0.0
21/06:30am 20.1 17.6 5.0 37 7.5 N 7 9 4 5 1019.2 - 0.0
21/06:00am 23.4 20.9 4.8 30 9.4 NNW 7 9 4 5 1018.7 1016.7 0.0
21/05:30am 24.2 20.3 3.4 26 10.3 E 13 19 7 10 1018.1 - 0.0
21/05:00am 23.9 21.4 3.8 27 10.0 ENE 6 9 3 5 1017.8 - 0.0
21/04:30am 25.2 21.9 2.2 22 11.2 E 9 11 5 6 1017.5 - 0.0
21/04:00am 24.6 20.4 1.4 22 11.1 ESE 13 20 7 11 1017.2 - 0.0
21/03:30am 25.3 21.1 -0.6 18 12.0 E 11 15 6 8 1017.0 - 0.0
21/03:00am 25.0 20.1 -0.4 18 11.8 E 15 20 8 11 1017.0 1015.1 0.0
21/02:30am 24.9 20.8 -0.3 19 11.7 E 11 13 6 7 1016.9 - 0.0
21/02:00am 25.4 21.1 0.8 20 11.7 E 13 15 7 8 1016.9 - 0.0
21/01:30am 26.4 21.9 -0.5 17 12.6 E 13 15 7 8 1017.2 - 0.0
21/01:00am 26.9 22.7 -0.6 16 12.9 E 11 13 6 7 1017.5 - 0.0
21/12:30am 26.6 22.6 0.7 18 12.4 E 11 13 6 7 1017.6 - 0.0
21/12:00am 26.3 22.5 1.6 20 12.0 E 11 13 6 7 1017.9 1015.9 0.0
 
Date/Time
EST
Temp
°C
App
Temp
°C
Dew
Point
Rel
Hum
%
Delta-T
°C
Wind Press
QNH
hPa
Press
MSL
hPa
Rain
since 9 am
mm
Dir
 
Spd
km/h
Gust
km/h
Spd
kts
Gust
kts
20/11:30pm 26.9 23.4 1.0 18 12.5 E 9 11 5 6 1018.2 - 0.0
20/11:00pm 24.5 21.3 2.9 24 10.6 ESE 9 11 5 6 1018.2 - 0.0
20/10:30pm 26.9 23.6 2.5 20 12.1 ESE 9 11 5 6 1018.3 - 0.0
20/10:00pm 27.7 24.5 3.1 20 12.4 E 9 11 5 6 1018.2 - 0.0
20/09:30pm 28.9 25.0 1.2 16 13.6 E 11 13 6 7 1018.0 - 0.0
20/09:00pm 29.7 25.2 -0.2 14 14.4 ESE 13 19 7 10 1017.7 1015.7 0.0
20/08:30pm 29.8 24.6 0.1 14 14.4 ESE 17 28 9 15 1017.4 - 0.0
20/08:00pm 29.6 25.3 1.3 16 14.0 ESE 13 19 7 10 1016.9 - 0.0
20/07:30pm 30.5 25.8 0.6 14 14.7 ESE 15 19 8 10 1016.5 - 0.0
20/07:00pm 30.9 26.2 1.2 15 14.8 ESE 15 19 8 10 1016.1 - 0.0
20/06:30pm 31.8 26.9 1.7 14 15.2 ESE 17 28 9 15 1015.7 - 0.0
20/06:00pm 32.7 27.8 1.9 14 15.7 E 17 26 9 14 1015.3 1013.3 0.0
20/05:30pm 33.2 28.0 2.7 14 15.8 ESE 19 30 10 16 1015.1 - 0.0
20/05:00pm 33.3 27.9 1.3 13 16.2 SE 19 28 10 15 1015.2 - 0.0
20/04:30pm 33.8 28.6 2.6 14 16.2 SE 19 24 10 13 1015.2 - 0.0
20/04:00pm 33.7 27.8 1.9 13 16.3 ESE 22 33 12 18 1015.3 - 0.0
20/03:30pm 33.5 28.3 2.2 14 16.1 E 19 33 10 18 1015.5 - 0.0
20/03:00pm 33.3 28.4 1.7 13 16.1 ESE 17 30 9 16 1015.7 1013.7 0.0
20/02:30pm 33.5 27.8 2.6 14 16.0 ESE 22 33 12 18 1016.3 - 0.0
20/02:00pm 33.8 29.1 2.9 14 16.1 ENE 17 26 9 14 1016.7 - 0.0
20/01:30pm 32.8 28.6 4.0 16 15.2 NNE 15 26 8 14 1017.1 - 0.0
20/01:00pm 32.4 27.7 3.4 16 15.1 E 17 35 9 19 1018.0 - 0.0

Other Formats:

Comma delimited format used in spreadsheet applications
http://www.bom.gov.au/fwo/IDQ60801/IDQ60801.94332.axf

JavaScript Object Notation format (JSON) in row-major order
http://www.bom.gov.au/fwo/IDQ60801/IDQ60801.94332.json